sensor_id;sensor_type;location;lat;lon;timestamp;P1;durP1;ratioP1;P2;durP2;ratioP2
58123;SDS011;46725;48.068;20.832;2022-09-29T00:02:01;9.73;;;4.88;;
58123;SDS011;46725;48.068;20.832;2022-09-29T00:04:27;8.02;;;4.57;;
58123;SDS011;46725;48.068;20.832;2022-09-29T00:06:53;12.77;;;4.80;;
58123;SDS011;46725;48.068;20.832;2022-09-29T00:09:19;7.70;;;4.95;;
58123;SDS011;46725;48.068;20.832;2022-09-29T00:11:45;10.38;;;5.07;;
58123;SDS011;46725;48.068;20.832;2022-09-29T00:14:11;10.77;;;5.53;;
58123;SDS011;46725;48.068;20.832;2022-09-29T00:16:37;7.15;;;4.68;;
58123;SDS011;46725;48.068;20.832;2022-09-29T00:19:03;8.05;;;4.82;;
58123;SDS011;46725;48.068;20.832;2022-09-29T00:21:29;7.78;;;5.13;;
58123;SDS011;46725;48.068;20.832;2022-09-29T00:23:55;11.68;;;5.38;;
58123;SDS011;46725;48.068;20.832;2022-09-29T00:26:22;9.65;;;4.93;;
58123;SDS011;46725;48.068;20.832;2022-09-29T00:28:49;10.60;;;5.53;;
58123;SDS011;46725;48.068;20.832;2022-09-29T00:31:17;7.60;;;4.47;;
58123;SDS011;46725;48.068;20.832;2022-09-29T00:33:43;9.80;;;4.70;;
58123;SDS011;46725;48.068;20.832;2022-09-29T00:36:10;9.27;;;4.30;;
58123;SDS011;46725;48.068;20.832;2022-09-29T00:38:36;6.60;;;4.35;;
58123;SDS011;46725;48.068;20.832;2022-09-29T00:41:03;8.55;;;4.65;;
58123;SDS011;46725;48.068;20.832;2022-09-29T00:43:49;10.80;;;5.45;;
58123;SDS011;46725;48.068;20.832;2022-09-29T00:46:17;9.90;;;5.20;;
58123;SDS011;46725;48.068;20.832;2022-09-29T00:48:46;6.55;;;3.92;;
58123;SDS011;46725;48.068;20.832;2022-09-29T00:51:12;8.10;;;5.00;;
58123;SDS011;46725;48.068;20.832;2022-09-29T00:53:38;11.68;;;4.95;;
58123;SDS011;46725;48.068;20.832;2022-09-29T00:56:06;8.57;;;4.85;;
58123;SDS011;46725;48.068;20.832;2022-09-29T00:58:39;10.52;;;5.25;;
58123;SDS011;46725;48.068;20.832;2022-09-29T01:01:07;10.20;;;5.45;;
58123;SDS011;46725;48.068;20.832;2022-09-29T01:03:35;9.75;;;6.13;;
58123;SDS011;46725;48.068;20.832;2022-09-29T01:06:05;8.35;;;4.78;;
58123;SDS011;46725;48.068;20.832;2022-09-29T01:11:04;13.43;;;5.20;;
58123;SDS011;46725;48.068;20.832;2022-09-29T01:13:30;11.65;;;5.53;;
58123;SDS011;46725;48.068;20.832;2022-09-29T01:15:57;8.80;;;5.32;;
58123;SDS011;46725;48.068;20.832;2022-09-29T01:18:23;12.70;;;5.43;;
58123;SDS011;46725;48.068;20.832;2022-09-29T01:41:50;9.48;;;5.47;;
58123;SDS011;46725;48.068;20.832;2022-09-29T01:46:51;8.32;;;5.10;;
58123;SDS011;46725;48.068;20.832;2022-09-29T01:49:18;8.52;;;5.40;;
58123;SDS011;46725;48.068;20.832;2022-09-29T01:54:13;10.68;;;5.07;;
58123;SDS011;46725;48.068;20.832;2022-09-29T01:56:43;8.70;;;5.47;;
58123;SDS011;46725;48.068;20.832;2022-09-29T01:59:18;8.00;;;5.80;;
58123;SDS011;46725;48.068;20.832;2022-09-29T02:01:47;14.20;;;6.43;;
58123;SDS011;46725;48.068;20.832;2022-09-29T02:04:26;14.63;;;5.65;;
58123;SDS011;46725;48.068;20.832;2022-09-29T02:06:56;9.27;;;5.95;;
58123;SDS011;46725;48.068;20.832;2022-09-29T02:09:25;9.88;;;5.85;;
58123;SDS011;46725;48.068;20.832;2022-09-29T02:11:53;10.07;;;5.68;;
58123;SDS011;46725;48.068;20.832;2022-09-29T02:14:21;14.50;;;6.60;;
58123;SDS011;46725;48.068;20.832;2022-09-29T02:16:51;13.25;;;6.03;;
58123;SDS011;46725;48.068;20.832;2022-09-29T02:19:20;10.02;;;5.97;;
58123;SDS011;46725;48.068;20.832;2022-09-29T02:21:47;10.45;;;6.03;;
58123;SDS011;46725;48.068;20.832;2022-09-29T02:24:15;9.10;;;6.03;;
58123;SDS011;46725;48.068;20.832;2022-09-29T02:26:41;12.27;;;6.20;;
58123;SDS011;46725;48.068;20.832;2022-09-29T02:29:09;10.25;;;5.88;;
58123;SDS011;46725;48.068;20.832;2022-09-29T02:31:36;9.23;;;5.72;;
58123;SDS011;46725;48.068;20.832;2022-09-29T02:34:02;14.52;;;6.55;;
58123;SDS011;46725;48.068;20.832;2022-09-29T02:36:33;8.75;;;5.68;;
58123;SDS011;46725;48.068;20.832;2022-09-29T02:44:11;9.13;;;6.00;;
58123;SDS011;46725;48.068;20.832;2022-09-29T02:54:06;8.27;;;5.70;;
58123;SDS011;46725;48.068;20.832;2022-09-29T02:59:26;13.82;;;7.07;;
58123;SDS011;46725;48.068;20.832;2022-09-29T03:01:55;13.38;;;6.70;;
58123;SDS011;46725;48.068;20.832;2022-09-29T03:04:23;9.98;;;6.70;;
58123;SDS011;46725;48.068;20.832;2022-09-29T03:06:50;11.88;;;6.38;;
58123;SDS011;46725;48.068;20.832;2022-09-29T03:09:16;9.68;;;6.53;;
58123;SDS011;46725;48.068;20.832;2022-09-29T03:11:42;10.30;;;6.25;;
58123;SDS011;46725;48.068;20.832;2022-09-29T03:14:08;9.30;;;6.18;;
58123;SDS011;46725;48.068;20.832;2022-09-29T03:16:34;12.20;;;6.40;;
58123;SDS011;46725;48.068;20.832;2022-09-29T03:19:01;11.25;;;6.47;;
58123;SDS011;46725;48.068;20.832;2022-09-29T03:21:27;11.05;;;6.55;;
58123;SDS011;46725;48.068;20.832;2022-09-29T03:23:53;11.57;;;6.78;;
58123;SDS011;46725;48.068;20.832;2022-09-29T03:26:19;10.38;;;6.65;;
58123;SDS011;46725;48.068;20.832;2022-09-29T03:28:47;13.73;;;7.05;;
58123;SDS011;46725;48.068;20.832;2022-09-29T03:31:13;10.20;;;6.38;;
58123;SDS011;46725;48.068;20.832;2022-09-29T03:33:39;11.02;;;6.63;;
58123;SDS011;46725;48.068;20.832;2022-09-29T03:36:06;13.05;;;6.97;;
58123;SDS011;46725;48.068;20.832;2022-09-29T03:38:35;11.38;;;5.95;;
58123;SDS011;46725;48.068;20.832;2022-09-29T03:41:02;12.00;;;6.63;;
58123;SDS011;46725;48.068;20.832;2022-09-29T03:43:28;13.57;;;7.47;;
58123;SDS011;46725;48.068;20.832;2022-09-29T03:45:55;9.50;;;6.47;;
58123;SDS011;46725;48.068;20.832;2022-09-29T03:48:21;11.80;;;7.43;;
58123;SDS011;46725;48.068;20.832;2022-09-29T03:50:48;13.77;;;7.55;;
58123;SDS011;46725;48.068;20.832;2022-09-29T03:53:15;10.98;;;7.45;;
58123;SDS011;46725;48.068;20.832;2022-09-29T03:55:45;12.68;;;7.68;;
58123;SDS011;46725;48.068;20.832;2022-09-29T03:58:11;12.05;;;8.38;;
58123;SDS011;46725;48.068;20.832;2022-09-29T04:00:37;11.65;;;7.60;;
58123;SDS011;46725;48.068;20.832;2022-09-29T04:03:03;13.45;;;8.43;;
58123;SDS011;46725;48.068;20.832;2022-09-29T04:05:29;11.73;;;7.38;;
58123;SDS011;46725;48.068;20.832;2022-09-29T04:07:55;11.73;;;7.40;;
58123;SDS011;46725;48.068;20.832;2022-09-29T04:10:21;15.20;;;7.78;;
58123;SDS011;46725;48.068;20.832;2022-09-29T04:12:48;12.05;;;7.80;;
58123;SDS011;46725;48.068;20.832;2022-09-29T04:15:14;15.02;;;8.15;;
58123;SDS011;46725;48.068;20.832;2022-09-29T04:17:40;12.57;;;7.60;;
58123;SDS011;46725;48.068;20.832;2022-09-29T04:20:06;12.30;;;8.68;;
58123;SDS011;46725;48.068;20.832;2022-09-29T04:22:32;10.43;;;7.18;;
58123;SDS011;46725;48.068;20.832;2022-09-29T04:24:58;11.45;;;7.47;;
58123;SDS011;46725;48.068;20.832;2022-09-29T04:27:24;13.68;;;8.23;;
58123;SDS011;46725;48.068;20.832;2022-09-29T04:29:50;12.60;;;8.20;;
58123;SDS011;46725;48.068;20.832;2022-09-29T04:32:16;18.80;;;8.10;;
58123;SDS011;46725;48.068;20.832;2022-09-29T04:34:42;11.95;;;8.13;;
58123;SDS011;46725;48.068;20.832;2022-09-29T04:37:08;12.25;;;8.23;;
58123;SDS011;46725;48.068;20.832;2022-09-29T04:39:35;13.85;;;7.88;;
58123;SDS011;46725;48.068;20.832;2022-09-29T04:42:01;13.73;;;8.27;;
58123;SDS011;46725;48.068;20.832;2022-09-29T04:44:28;13.45;;;8.75;;
58123;SDS011;46725;48.068;20.832;2022-09-29T04:46:54;15.82;;;8.90;;
58123;SDS011;46725;48.068;20.832;2022-09-29T04:49:20;14.50;;;9.02;;
58123;SDS011;46725;48.068;20.832;2022-09-29T04:51:46;15.13;;;10.30;;
58123;SDS011;46725;48.068;20.832;2022-09-29T04:54:12;16.08;;;9.38;;
58123;SDS011;46725;48.068;20.832;2022-09-29T04:56:38;14.60;;;9.55;;
58123;SDS011;46725;48.068;20.832;2022-09-29T04:59:04;14.20;;;9.35;;
58123;SDS011;46725;48.068;20.832;2022-09-29T05:01:30;14.73;;;9.40;;
58123;SDS011;46725;48.068;20.832;2022-09-29T05:03:56;18.45;;;9.23;;
58123;SDS011;46725;48.068;20.832;2022-09-29T05:06:22;13.70;;;8.90;;
58123;SDS011;46725;48.068;20.832;2022-09-29T05:08:49;13.27;;;9.32;;
58123;SDS011;46725;48.068;20.832;2022-09-29T05:11:15;12.52;;;7.55;;
58123;SDS011;46725;48.068;20.832;2022-09-29T05:13:41;15.02;;;8.98;;
58123;SDS011;46725;48.068;20.832;2022-09-29T05:16:07;12.00;;;8.02;;
58123;SDS011;46725;48.068;20.832;2022-09-29T05:18:33;15.45;;;8.77;;
58123;SDS011;46725;48.068;20.832;2022-09-29T05:21:03;13.52;;;8.45;;
58123;SDS011;46725;48.068;20.832;2022-09-29T05:23:29;15.45;;;8.35;;
58123;SDS011;46725;48.068;20.832;2022-09-29T05:25:59;12.50;;;9.10;;
58123;SDS011;46725;48.068;20.832;2022-09-29T05:28:26;14.80;;;8.32;;
58123;SDS011;46725;48.068;20.832;2022-09-29T05:30:52;13.63;;;8.02;;
58123;SDS011;46725;48.068;20.832;2022-09-29T05:33:18;13.27;;;8.45;;
58123;SDS011;46725;48.068;20.832;2022-09-29T05:35:44;14.63;;;9.65;;
58123;SDS011;46725;48.068;20.832;2022-09-29T05:38:10;13.75;;;9.27;;
58123;SDS011;46725;48.068;20.832;2022-09-29T05:40:36;15.27;;;9.55;;
58123;SDS011;46725;48.068;20.832;2022-09-29T05:43:02;14.57;;;9.65;;
58123;SDS011;46725;48.068;20.832;2022-09-29T05:45:29;15.25;;;10.00;;
58123;SDS011;46725;48.068;20.832;2022-09-29T05:47:55;14.63;;;9.55;;
58123;SDS011;46725;48.068;20.832;2022-09-29T05:50:21;15.95;;;9.88;;
58123;SDS011;46725;48.068;20.832;2022-09-29T05:52:48;17.50;;;10.55;;
58123;SDS011;46725;48.068;20.832;2022-09-29T05:55:14;16.85;;;10.10;;
58123;SDS011;46725;48.068;20.832;2022-09-29T05:57:40;14.18;;;8.63;;
58123;SDS011;46725;48.068;20.832;2022-09-29T06:00:07;16.38;;;8.80;;
58123;SDS011;46725;48.068;20.832;2022-09-29T06:02:33;16.65;;;9.50;;
58123;SDS011;46725;48.068;20.832;2022-09-29T06:04:59;14.60;;;8.52;;
58123;SDS011;46725;48.068;20.832;2022-09-29T06:07:25;13.05;;;8.38;;
58123;SDS011;46725;48.068;20.832;2022-09-29T06:09:51;11.98;;;7.70;;
58123;SDS011;46725;48.068;20.832;2022-09-29T06:12:17;14.07;;;8.38;;
58123;SDS011;46725;48.068;20.832;2022-09-29T06:14:43;13.48;;;9.15;;
58123;SDS011;46725;48.068;20.832;2022-09-29T06:17:09;18.17;;;10.68;;
58123;SDS011;46725;48.068;20.832;2022-09-29T06:19:35;15.40;;;10.18;;
58123;SDS011;46725;48.068;20.832;2022-09-29T06:22:01;20.00;;;11.30;;
58123;SDS011;46725;48.068;20.832;2022-09-29T06:24:27;15.63;;;10.55;;
58123;SDS011;46725;48.068;20.832;2022-09-29T06:26:53;13.80;;;8.98;;
58123;SDS011;46725;48.068;20.832;2022-09-29T06:29:19;15.70;;;9.20;;
58123;SDS011;46725;48.068;20.832;2022-09-29T06:31:46;17.52;;;8.75;;
58123;SDS011;46725;48.068;20.832;2022-09-29T06:34:12;13.85;;;8.90;;
58123;SDS011;46725;48.068;20.832;2022-09-29T06:36:39;16.02;;;10.23;;
58123;SDS011;46725;48.068;20.832;2022-09-29T06:39:24;16.10;;;9.65;;
58123;SDS011;46725;48.068;20.832;2022-09-29T06:41:50;12.57;;;8.23;;
58123;SDS011;46725;48.068;20.832;2022-09-29T06:44:19;12.32;;;8.10;;
58123;SDS011;46725;48.068;20.832;2022-09-29T06:46:45;14.93;;;9.32;;
58123;SDS011;46725;48.068;20.832;2022-09-29T06:49:12;16.88;;;10.18;;
58123;SDS011;46725;48.068;20.832;2022-09-29T06:51:39;21.20;;;11.70;;
58123;SDS011;46725;48.068;20.832;2022-09-29T06:54:06;18.90;;;12.57;;
58123;SDS011;46725;48.068;20.832;2022-09-29T06:56:32;17.23;;;12.68;;
58123;SDS011;46725;48.068;20.832;2022-09-29T06:58:58;16.58;;;10.15;;
58123;SDS011;46725;48.068;20.832;2022-09-29T07:01:25;14.32;;;8.75;;
58123;SDS011;46725;48.068;20.832;2022-09-29T07:03:51;14.45;;;8.50;;
58123;SDS011;46725;48.068;20.832;2022-09-29T07:06:17;20.15;;;8.70;;
58123;SDS011;46725;48.068;20.832;2022-09-29T07:08:43;17.90;;;8.52;;
58123;SDS011;46725;48.068;20.832;2022-09-29T07:11:09;16.85;;;8.95;;
58123;SDS011;46725;48.068;20.832;2022-09-29T07:13:35;13.55;;;7.82;;
58123;SDS011;46725;48.068;20.832;2022-09-29T07:16:09;14.60;;;8.15;;
58123;SDS011;46725;48.068;20.832;2022-09-29T07:18:36;15.38;;;8.45;;
58123;SDS011;46725;48.068;20.832;2022-09-29T07:21:03;14.43;;;7.47;;
58123;SDS011;46725;48.068;20.832;2022-09-29T07:23:29;17.83;;;11.10;;
58123;SDS011;46725;48.068;20.832;2022-09-29T07:25:55;20.65;;;13.15;;
58123;SDS011;46725;48.068;20.832;2022-09-29T07:28:22;28.52;;;15.75;;
58123;SDS011;46725;48.068;20.832;2022-09-29T07:31:01;19.90;;;14.20;;
58123;SDS011;46725;48.068;20.832;2022-09-29T07:33:27;20.92;;;12.68;;
58123;SDS011;46725;48.068;20.832;2022-09-29T07:35:55;16.40;;;10.85;;
58123;SDS011;46725;48.068;20.832;2022-09-29T07:38:23;19.50;;;10.45;;
58123;SDS011;46725;48.068;20.832;2022-09-29T07:40:49;14.93;;;9.57;;
58123;SDS011;46725;48.068;20.832;2022-09-29T07:43:15;13.02;;;9.07;;
58123;SDS011;46725;48.068;20.832;2022-09-29T07:45:46;14.73;;;9.55;;
58123;SDS011;46725;48.068;20.832;2022-09-29T07:48:12;16.30;;;10.75;;
58123;SDS011;46725;48.068;20.832;2022-09-29T07:50:38;15.40;;;10.57;;
58123;SDS011;46725;48.068;20.832;2022-09-29T07:53:04;15.90;;;9.48;;
58123;SDS011;46725;48.068;20.832;2022-09-29T07:55:30;14.50;;;8.05;;
58123;SDS011;46725;48.068;20.832;2022-09-29T07:57:57;17.08;;;8.85;;
58123;SDS011;46725;48.068;20.832;2022-09-29T08:00:23;16.77;;;9.63;;
58123;SDS011;46725;48.068;20.832;2022-09-29T08:02:49;17.83;;;8.80;;
58123;SDS011;46725;48.068;20.832;2022-09-29T08:05:15;21.73;;;9.90;;
58123;SDS011;46725;48.068;20.832;2022-09-29T08:07:42;17.27;;;9.57;;
58123;SDS011;46725;48.068;20.832;2022-09-29T08:10:08;15.85;;;9.23;;
58123;SDS011;46725;48.068;20.832;2022-09-29T08:12:34;14.70;;;9.25;;
58123;SDS011;46725;48.068;20.832;2022-09-29T08:15:00;19.48;;;9.90;;
58123;SDS011;46725;48.068;20.832;2022-09-29T08:17:26;16.25;;;10.15;;
58123;SDS011;46725;48.068;20.832;2022-09-29T08:19:52;14.88;;;9.85;;
58123;SDS011;46725;48.068;20.832;2022-09-29T08:22:18;17.33;;;10.98;;
58123;SDS011;46725;48.068;20.832;2022-09-29T08:24:44;17.73;;;10.77;;
58123;SDS011;46725;48.068;20.832;2022-09-29T08:27:10;19.00;;;12.50;;
58123;SDS011;46725;48.068;20.832;2022-09-29T08:29:36;16.95;;;11.68;;
58123;SDS011;46725;48.068;20.832;2022-09-29T08:32:02;20.48;;;13.73;;
58123;SDS011;46725;48.068;20.832;2022-09-29T08:34:28;22.40;;;16.08;;
58123;SDS011;46725;48.068;20.832;2022-09-29T08:36:54;21.65;;;15.20;;
58123;SDS011;46725;48.068;20.832;2022-09-29T08:39:20;20.55;;;12.57;;
58123;SDS011;46725;48.068;20.832;2022-09-29T08:44:52;34.70;;;30.52;;
58123;SDS011;46725;48.068;20.832;2022-09-29T08:47:26;24.75;;;20.30;;
58123;SDS011;46725;48.068;20.832;2022-09-29T08:50:01;19.83;;;14.30;;
58123;SDS011;46725;48.068;20.832;2022-09-29T08:52:28;14.93;;;10.73;;
58123;SDS011;46725;48.068;20.832;2022-09-29T08:55:42;18.25;;;12.55;;
58123;SDS011;46725;48.068;20.832;2022-09-29T08:57:41;15.25;;;10.73;;
58123;SDS011;46725;48.068;20.832;2022-09-29T09:00:09;15.98;;;10.75;;
58123;SDS011;46725;48.068;20.832;2022-09-29T09:10:44;19.92;;;12.75;;
58123;SDS011;46725;48.068;20.832;2022-09-29T09:20:39;17.55;;;13.07;;
58123;SDS011;46725;48.068;20.832;2022-09-29T09:25:49;24.95;;;13.60;;
58123;SDS011;46725;48.068;20.832;2022-09-29T09:28:30;18.33;;;13.05;;
58123;SDS011;46725;48.068;20.832;2022-09-29T09:31:08;17.45;;;12.30;;
58123;SDS011;46725;48.068;20.832;2022-09-29T09:33:40;14.88;;;11.23;;
58123;SDS011;46725;48.068;20.832;2022-09-29T09:36:10;13.55;;;10.98;;
58123;SDS011;46725;48.068;20.832;2022-09-29T09:38:40;15.73;;;11.60;;
58123;SDS011;46725;48.068;20.832;2022-09-29T09:41:09;15.05;;;9.38;;
58123;SDS011;46725;48.068;20.832;2022-09-29T09:43:40;11.80;;;8.35;;
58123;SDS011;46725;48.068;20.832;2022-09-29T09:53:52;14.27;;;10.52;;
58123;SDS011;46725;48.068;20.832;2022-09-29T10:01:15;11.98;;;8.70;;
58123;SDS011;46725;48.068;20.832;2022-09-29T10:03:41;14.35;;;10.15;;
58123;SDS011;46725;48.068;20.832;2022-09-29T10:06:07;13.82;;;9.15;;
58123;SDS011;46725;48.068;20.832;2022-09-29T10:08:35;15.70;;;10.15;;
58123;SDS011;46725;48.068;20.832;2022-09-29T10:13:39;16.13;;;10.60;;
58123;SDS011;46725;48.068;20.832;2022-09-29T10:21:54;16.38;;;11.00;;
58123;SDS011;46725;48.068;20.832;2022-09-29T10:23:56;15.07;;;10.25;;
58123;SDS011;46725;48.068;20.832;2022-09-29T10:26:24;14.45;;;9.10;;
58123;SDS011;46725;48.068;20.832;2022-09-29T10:28:52;14.55;;;9.15;;
58123;SDS011;46725;48.068;20.832;2022-09-29T10:33:48;11.20;;;8.02;;
58123;SDS011;46725;48.068;20.832;2022-09-29T10:36:15;18.38;;;9.27;;
58123;SDS011;46725;48.068;20.832;2022-09-29T10:38:47;11.30;;;8.18;;
58123;SDS011;46725;48.068;20.832;2022-09-29T10:41:14;13.20;;;8.57;;
58123;SDS011;46725;48.068;20.832;2022-09-29T10:43:42;12.93;;;8.48;;
58123;SDS011;46725;48.068;20.832;2022-09-29T10:51:38;25.00;;;17.00;;
58123;SDS011;46725;48.068;20.832;2022-09-29T10:54:07;27.30;;;21.02;;
58123;SDS011;46725;48.068;20.832;2022-09-29T10:56:34;17.50;;;13.30;;
58123;SDS011;46725;48.068;20.832;2022-09-29T10:59:00;16.88;;;11.05;;
58123;SDS011;46725;48.068;20.832;2022-09-29T11:01:27;18.02;;;10.68;;
58123;SDS011;46725;48.068;20.832;2022-09-29T11:03:56;14.40;;;10.13;;
58123;SDS011;46725;48.068;20.832;2022-09-29T11:06:29;14.27;;;10.40;;
58123;SDS011;46725;48.068;20.832;2022-09-29T11:08:57;10.77;;;7.78;;
58123;SDS011;46725;48.068;20.832;2022-09-29T11:11:32;14.65;;;8.52;;
58123;SDS011;46725;48.068;20.832;2022-09-29T11:13:59;14.07;;;8.48;;
58123;SDS011;46725;48.068;20.832;2022-09-29T11:16:35;10.82;;;8.15;;
58123;SDS011;46725;48.068;20.832;2022-09-29T11:36:52;13.75;;;10.93;;
58123;SDS011;46725;48.068;20.832;2022-09-29T11:44:56;18.50;;;12.90;;
58123;SDS011;46725;48.068;20.832;2022-09-29T11:55:36;22.25;;;12.75;;
58123;SDS011;46725;48.068;20.832;2022-09-29T12:08:57;15.75;;;10.13;;
58123;SDS011;46725;48.068;20.832;2022-09-29T12:14:19;19.52;;;11.07;;
58123;SDS011;46725;48.068;20.832;2022-09-29T12:16:58;16.10;;;11.20;;
58123;SDS011;46725;48.068;20.832;2022-09-29T12:19:27;15.07;;;9.60;;
58123;SDS011;46725;48.068;20.832;2022-09-29T12:21:56;12.02;;;9.35;;
58123;SDS011;46725;48.068;20.832;2022-09-29T12:29:47;12.90;;;9.80;;
58123;SDS011;46725;48.068;20.832;2022-09-29T12:32:57;14.73;;;10.35;;
58123;SDS011;46725;48.068;20.832;2022-09-29T12:40:16;12.27;;;9.05;;
58123;SDS011;46725;48.068;20.832;2022-09-29T12:47:53;15.18;;;9.48;;
58123;SDS011;46725;48.068;20.832;2022-09-29T12:50:26;11.10;;;8.27;;
58123;SDS011;46725;48.068;20.832;2022-09-29T12:52:55;11.23;;;7.97;;
58123;SDS011;46725;48.068;20.832;2022-09-29T12:55:28;9.60;;;7.32;;
58123;SDS011;46725;48.068;20.832;2022-09-29T13:00:21;11.25;;;7.38;;
58123;SDS011;46725;48.068;20.832;2022-09-29T13:20:41;10.90;;;7.22;;
58123;SDS011;46725;48.068;20.832;2022-09-29T13:28:43;13.77;;;9.40;;
58123;SDS011;46725;48.068;20.832;2022-09-29T13:31:12;9.27;;;6.85;;
58123;SDS011;46725;48.068;20.832;2022-09-29T13:33:39;8.43;;;6.93;;
58123;SDS011;46725;48.068;20.832;2022-09-29T13:36:06;8.13;;;6.38;;
58123;SDS011;46725;48.068;20.832;2022-09-29T13:38:34;7.60;;;5.85;;
58123;SDS011;46725;48.068;20.832;2022-09-29T13:49:00;7.55;;;5.50;;
58123;SDS011;46725;48.068;20.832;2022-09-29T13:52:27;7.97;;;5.35;;
58123;SDS011;46725;48.068;20.832;2022-09-29T13:56:47;8.70;;;5.53;;
58123;SDS011;46725;48.068;20.832;2022-09-29T13:59:14;13.52;;;9.13;;
58123;SDS011;46725;48.068;20.832;2022-09-29T14:01:43;11.98;;;8.48;;
58123;SDS011;46725;48.068;20.832;2022-09-29T14:06:54;17.65;;;11.65;;
58123;SDS011;46725;48.068;20.832;2022-09-29T14:09:23;17.40;;;11.65;;
58123;SDS011;46725;48.068;20.832;2022-09-29T14:11:55;15.35;;;11.48;;
58123;SDS011;46725;48.068;20.832;2022-09-29T14:19:41;15.65;;;11.02;;
58123;SDS011;46725;48.068;20.832;2022-09-29T14:25:20;19.33;;;12.25;;
58123;SDS011;46725;48.068;20.832;2022-09-29T14:30:17;18.60;;;12.57;;
58123;SDS011;46725;48.068;20.832;2022-09-29T14:35:15;18.95;;;12.80;;
58123;SDS011;46725;48.068;20.832;2022-09-29T14:37:43;18.42;;;13.18;;
58123;SDS011;46725;48.068;20.832;2022-09-29T14:40:11;21.98;;;13.95;;
58123;SDS011;46725;48.068;20.832;2022-09-29T14:43:04;24.60;;;14.25;;
58123;SDS011;46725;48.068;20.832;2022-09-29T14:45:31;22.52;;;14.55;;
58123;SDS011;46725;48.068;20.832;2022-09-29T14:48:34;16.08;;;12.35;;
58123;SDS011;46725;48.068;20.832;2022-09-29T14:51:31;17.58;;;12.70;;
58123;SDS011;46725;48.068;20.832;2022-09-29T14:59:26;16.77;;;11.70;;
58123;SDS011;46725;48.068;20.832;2022-09-29T15:02:03;18.63;;;13.50;;
58123;SDS011;46725;48.068;20.832;2022-09-29T15:04:37;18.50;;;14.27;;
58123;SDS011;46725;48.068;20.832;2022-09-29T15:07:03;20.00;;;13.82;;
58123;SDS011;46725;48.068;20.832;2022-09-29T15:09:33;15.50;;;13.18;;
58123;SDS011;46725;48.068;20.832;2022-09-29T15:12:00;16.10;;;13.27;;
58123;SDS011;46725;48.068;20.832;2022-09-29T15:14:30;19.80;;;13.75;;
58123;SDS011;46725;48.068;20.832;2022-09-29T15:22:13;18.58;;;14.70;;
58123;SDS011;46725;48.068;20.832;2022-09-29T15:27:11;19.67;;;14.75;;
58123;SDS011;46725;48.068;20.832;2022-09-29T15:29:38;23.75;;;16.08;;
58123;SDS011;46725;48.068;20.832;2022-09-29T15:32:10;21.33;;;15.18;;
58123;SDS011;46725;48.068;20.832;2022-09-29T15:34:43;22.08;;;16.92;;
58123;SDS011;46725;48.068;20.832;2022-09-29T15:37:10;22.88;;;16.58;;
58123;SDS011;46725;48.068;20.832;2022-09-29T15:39:42;22.67;;;17.77;;
58123;SDS011;46725;48.068;20.832;2022-09-29T15:42:15;20.70;;;13.77;;
58123;SDS011;46725;48.068;20.832;2022-09-29T15:44:51;24.05;;;15.57;;
58123;SDS011;46725;48.068;20.832;2022-09-29T15:47:28;25.48;;;18.23;;
58123;SDS011;46725;48.068;20.832;2022-09-29T15:50:02;27.50;;;18.63;;
58123;SDS011;46725;48.068;20.832;2022-09-29T15:52:29;23.83;;;18.00;;
58123;SDS011;46725;48.068;20.832;2022-09-29T15:54:56;27.13;;;18.65;;
58123;SDS011;46725;48.068;20.832;2022-09-29T15:57:30;46.33;;;28.05;;
58123;SDS011;46725;48.068;20.832;2022-09-29T16:03:15;73.13;;;42.75;;
58123;SDS011;46725;48.068;20.832;2022-09-29T16:05:51;47.03;;;30.10;;
58123;SDS011;46725;48.068;20.832;2022-09-29T16:08:19;46.53;;;31.73;;
58123;SDS011;46725;48.068;20.832;2022-09-29T16:13:20;46.95;;;30.20;;
58123;SDS011;46725;48.068;20.832;2022-09-29T16:15:47;35.45;;;26.15;;
58123;SDS011;46725;48.068;20.832;2022-09-29T16:20:41;39.65;;;28.58;;
58123;SDS011;46725;48.068;20.832;2022-09-29T16:23:27;45.42;;;29.42;;
58123;SDS011;46725;48.068;20.832;2022-09-29T16:26:07;38.50;;;27.75;;
58123;SDS011;46725;48.068;20.832;2022-09-29T16:28:38;42.45;;;32.20;;
58123;SDS011;46725;48.068;20.832;2022-09-29T16:31:05;40.70;;;28.48;;
58123;SDS011;46725;48.068;20.832;2022-09-29T16:33:34;36.75;;;26.90;;
58123;SDS011;46725;48.068;20.832;2022-09-29T16:36:02;35.05;;;27.58;;
58123;SDS011;46725;48.068;20.832;2022-09-29T16:38:35;44.30;;;32.50;;
58123;SDS011;46725;48.068;20.832;2022-09-29T16:41:07;52.95;;;40.30;;
58123;SDS011;46725;48.068;20.832;2022-09-29T16:43:34;58.67;;;42.50;;
58123;SDS011;46725;48.068;20.832;2022-09-29T16:46:02;69.30;;;45.63;;
58123;SDS011;46725;48.068;20.832;2022-09-29T16:48:31;58.03;;;39.75;;
58123;SDS011;46725;48.068;20.832;2022-09-29T16:51:02;58.25;;;39.00;;
58123;SDS011;46725;48.068;20.832;2022-09-29T16:53:30;59.35;;;39.65;;
58123;SDS011;46725;48.068;20.832;2022-09-29T16:56:16;66.90;;;45.30;;
58123;SDS011;46725;48.068;20.832;2022-09-29T16:58:43;66.70;;;45.40;;
58123;SDS011;46725;48.068;20.832;2022-09-29T17:01:10;63.67;;;44.55;;
58123;SDS011;46725;48.068;20.832;2022-09-29T17:03:39;64.22;;;43.95;;
58123;SDS011;46725;48.068;20.832;2022-09-29T17:06:07;68.30;;;44.75;;
58123;SDS011;46725;48.068;20.832;2022-09-29T17:08:33;65.18;;;44.22;;
58123;SDS011;46725;48.068;20.832;2022-09-29T17:10:59;60.50;;;41.67;;
58123;SDS011;46725;48.068;20.832;2022-09-29T17:13:29;68.32;;;48.70;;
58123;SDS011;46725;48.068;20.832;2022-09-29T17:15:57;74.37;;;50.33;;
58123;SDS011;46725;48.068;20.832;2022-09-29T17:18:23;72.78;;;52.17;;
58123;SDS011;46725;48.068;20.832;2022-09-29T17:20:51;77.38;;;52.30;;
58123;SDS011;46725;48.068;20.832;2022-09-29T17:23:17;79.13;;;52.55;;
58123;SDS011;46725;48.068;20.832;2022-09-29T17:25:44;83.00;;;51.25;;
58123;SDS011;46725;48.068;20.832;2022-09-29T17:28:20;76.60;;;51.00;;
58123;SDS011;46725;48.068;20.832;2022-09-29T17:30:51;71.35;;;47.88;;
58123;SDS011;46725;48.068;20.832;2022-09-29T17:33:19;65.30;;;46.05;;
58123;SDS011;46725;48.068;20.832;2022-09-29T17:35:46;69.07;;;45.90;;
58123;SDS011;46725;48.068;20.832;2022-09-29T17:38:13;67.55;;;46.55;;
58123;SDS011;46725;48.068;20.832;2022-09-29T17:40:56;60.58;;;40.33;;
58123;SDS011;46725;48.068;20.832;2022-09-29T17:43:22;52.28;;;37.42;;
58123;SDS011;46725;48.068;20.832;2022-09-29T17:45:49;55.42;;;37.83;;
58123;SDS011;46725;48.068;20.832;2022-09-29T17:48:15;55.08;;;38.47;;
58123;SDS011;46725;48.068;20.832;2022-09-29T17:53:31;61.72;;;38.88;;
58123;SDS011;46725;48.068;20.832;2022-09-29T17:55:57;53.97;;;39.35;;
58123;SDS011;46725;48.068;20.832;2022-09-29T17:58:23;55.40;;;37.58;;
58123;SDS011;46725;48.068;20.832;2022-09-29T18:00:51;54.65;;;40.42;;
58123;SDS011;46725;48.068;20.832;2022-09-29T18:03:18;65.75;;;42.97;;
58123;SDS011;46725;48.068;20.832;2022-09-29T18:05:48;60.92;;;40.28;;
58123;SDS011;46725;48.068;20.832;2022-09-29T18:08:20;74.75;;;47.08;;
58123;SDS011;46725;48.068;20.832;2022-09-29T18:10:50;67.97;;;45.72;;
58123;SDS011;46725;48.068;20.832;2022-09-29T18:13:16;59.90;;;42.83;;
58123;SDS011;46725;48.068;20.832;2022-09-29T18:15:43;72.65;;;47.03;;
58123;SDS011;46725;48.068;20.832;2022-09-29T18:18:09;72.90;;;47.72;;